sensor_id;sensor_type;location;lat;lon;timestamp;P1;durP1;ratioP1;P2;durP2;ratioP2
77123;SDS011;66079;47.646;19.130;2023-07-22T00:01:44;7.80;;;5.05;;
77123;SDS011;66079;47.646;19.130;2023-07-22T00:04:49;8.23;;;5.72;;
77123;SDS011;66079;47.646;19.130;2023-07-22T00:07:52;8.57;;;5.57;;
77123;SDS011;66079;47.646;19.130;2023-07-22T00:10:55;9.27;;;5.57;;
77123;SDS011;66079;47.646;19.130;2023-07-22T00:13:58;6.07;;;5.15;;
77123;SDS011;66079;47.646;19.130;2023-07-22T00:17:01;6.95;;;5.90;;
77123;SDS011;66079;47.646;19.130;2023-07-22T00:20:04;7.78;;;5.60;;
77123;SDS011;66079;47.646;19.130;2023-07-22T00:23:07;6.03;;;4.97;;
77123;SDS011;66079;47.646;19.130;2023-07-22T00:26:12;5.78;;;4.78;;
77123;SDS011;66079;47.646;19.130;2023-07-22T00:29:15;7.80;;;4.90;;
77123;SDS011;66079;47.646;19.130;2023-07-22T00:32:18;5.35;;;4.72;;
77123;SDS011;66079;47.646;19.130;2023-07-22T00:35:21;6.80;;;5.28;;
77123;SDS011;66079;47.646;19.130;2023-07-22T00:38:24;5.13;;;4.63;;
77123;SDS011;66079;47.646;19.130;2023-07-22T00:41:35;7.13;;;5.05;;
77123;SDS011;66079;47.646;19.130;2023-07-22T00:44:40;5.63;;;5.10;;
77123;SDS011;66079;47.646;19.130;2023-07-22T00:47:42;7.38;;;5.30;;
77123;SDS011;66079;47.646;19.130;2023-07-22T00:50:46;7.85;;;5.15;;
77123;SDS011;66079;47.646;19.130;2023-07-22T00:53:48;7.70;;;5.97;;
77123;SDS011;66079;47.646;19.130;2023-07-22T00:56:51;6.85;;;5.25;;
77123;SDS011;66079;47.646;19.130;2023-07-22T00:59:57;7.18;;;5.22;;
77123;SDS011;66079;47.646;19.130;2023-07-22T01:03:00;8.52;;;5.50;;
77123;SDS011;66079;47.646;19.130;2023-07-22T01:06:03;6.68;;;5.53;;
77123;SDS011;66079;47.646;19.130;2023-07-22T01:09:06;6.63;;;5.27;;
77123;SDS011;66079;47.646;19.130;2023-07-22T01:12:10;7.70;;;6.28;;
77123;SDS011;66079;47.646;19.130;2023-07-22T01:15:14;8.50;;;5.80;;
77123;SDS011;66079;47.646;19.130;2023-07-22T01:18:17;8.10;;;5.63;;
77123;SDS011;66079;47.646;19.130;2023-07-22T01:21:23;7.18;;;5.65;;
77123;SDS011;66079;47.646;19.130;2023-07-22T01:24:27;7.27;;;5.90;;
77123;SDS011;66079;47.646;19.130;2023-07-22T01:27:31;8.27;;;6.18;;
77123;SDS011;66079;47.646;19.130;2023-07-22T01:30:33;7.28;;;5.70;;
77123;SDS011;66079;47.646;19.130;2023-07-22T01:33:36;6.50;;;5.80;;
77123;SDS011;66079;47.646;19.130;2023-07-22T01:36:40;6.65;;;5.38;;
77123;SDS011;66079;47.646;19.130;2023-07-22T01:39:44;7.43;;;5.73;;
77123;SDS011;66079;47.646;19.130;2023-07-22T01:42:47;6.97;;;5.95;;
77123;SDS011;66079;47.646;19.130;2023-07-22T01:45:52;8.32;;;5.70;;
77123;SDS011;66079;47.646;19.130;2023-07-22T01:49:00;7.20;;;5.35;;
77123;SDS011;66079;47.646;19.130;2023-07-22T01:52:04;7.50;;;4.85;;
77123;SDS011;66079;47.646;19.130;2023-07-22T01:55:08;7.20;;;4.80;;
77123;SDS011;66079;47.646;19.130;2023-07-22T01:58:13;6.97;;;5.43;;
77123;SDS011;66079;47.646;19.130;2023-07-22T02:01:18;7.22;;;5.80;;
77123;SDS011;66079;47.646;19.130;2023-07-22T02:04:21;7.43;;;6.40;;
77123;SDS011;66079;47.646;19.130;2023-07-22T02:07:24;7.72;;;6.20;;
77123;SDS011;66079;47.646;19.130;2023-07-22T02:10:28;8.53;;;5.73;;
77123;SDS011;66079;47.646;19.130;2023-07-22T02:13:31;6.05;;;5.32;;
77123;SDS011;66079;47.646;19.130;2023-07-22T02:16:36;6.47;;;5.50;;
77123;SDS011;66079;47.646;19.130;2023-07-22T02:19:40;5.85;;;5.22;;
77123;SDS011;66079;47.646;19.130;2023-07-22T02:22:42;7.57;;;5.35;;
77123;SDS011;66079;47.646;19.130;2023-07-22T02:25:49;7.73;;;5.70;;
77123;SDS011;66079;47.646;19.130;2023-07-22T02:28:52;7.13;;;5.40;;
77123;SDS011;66079;47.646;19.130;2023-07-22T02:31:59;9.10;;;5.43;;
77123;SDS011;66079;47.646;19.130;2023-07-22T02:35:03;6.63;;;5.40;;
77123;SDS011;66079;47.646;19.130;2023-07-22T02:38:06;7.80;;;5.25;;
77123;SDS011;66079;47.646;19.130;2023-07-22T02:41:09;7.17;;;5.23;;
77123;SDS011;66079;47.646;19.130;2023-07-22T02:44:12;8.15;;;6.20;;
77123;SDS011;66079;47.646;19.130;2023-07-22T02:47:16;7.25;;;5.40;;
77123;SDS011;66079;47.646;19.130;2023-07-22T02:50:19;7.05;;;5.47;;
77123;SDS011;66079;47.646;19.130;2023-07-22T02:53:21;7.18;;;5.97;;
77123;SDS011;66079;47.646;19.130;2023-07-22T02:56:25;8.47;;;6.03;;
77123;SDS011;66079;47.646;19.130;2023-07-22T02:59:29;7.90;;;6.00;;
77123;SDS011;66079;47.646;19.130;2023-07-22T03:02:31;6.93;;;5.55;;
77123;SDS011;66079;47.646;19.130;2023-07-22T03:05:34;9.45;;;5.60;;
77123;SDS011;66079;47.646;19.130;2023-07-22T03:08:38;7.47;;;5.65;;
77123;SDS011;66079;47.646;19.130;2023-07-22T03:11:40;6.70;;;5.40;;
77123;SDS011;66079;47.646;19.130;2023-07-22T03:14:44;8.35;;;6.00;;
77123;SDS011;66079;47.646;19.130;2023-07-22T03:17:47;7.60;;;6.05;;
77123;SDS011;66079;47.646;19.130;2023-07-22T03:20:53;9.88;;;6.47;;
77123;SDS011;66079;47.646;19.130;2023-07-22T03:23:55;8.48;;;6.55;;
77123;SDS011;66079;47.646;19.130;2023-07-22T03:26:58;9.67;;;6.43;;
77123;SDS011;66079;47.646;19.130;2023-07-22T03:30:05;9.43;;;6.20;;
77123;SDS011;66079;47.646;19.130;2023-07-22T03:33:18;7.93;;;6.35;;
77123;SDS011;66079;47.646;19.130;2023-07-22T03:36:20;7.90;;;6.63;;
77123;SDS011;66079;47.646;19.130;2023-07-22T03:39:24;9.13;;;6.90;;
77123;SDS011;66079;47.646;19.130;2023-07-22T03:42:26;7.83;;;6.47;;
77123;SDS011;66079;47.646;19.130;2023-07-22T03:45:29;7.13;;;6.43;;
77123;SDS011;66079;47.646;19.130;2023-07-22T03:48:32;7.60;;;6.72;;
77123;SDS011;66079;47.646;19.130;2023-07-22T03:51:36;8.57;;;6.70;;
77123;SDS011;66079;47.646;19.130;2023-07-22T03:54:38;8.48;;;6.50;;
77123;SDS011;66079;47.646;19.130;2023-07-22T03:57:41;9.53;;;6.70;;
77123;SDS011;66079;47.646;19.130;2023-07-22T04:00:49;9.10;;;5.93;;
77123;SDS011;66079;47.646;19.130;2023-07-22T04:03:53;8.50;;;7.25;;
77123;SDS011;66079;47.646;19.130;2023-07-22T04:06:56;8.25;;;6.88;;
77123;SDS011;66079;47.646;19.130;2023-07-22T04:09:59;8.38;;;7.07;;
77123;SDS011;66079;47.646;19.130;2023-07-22T04:13:01;7.77;;;7.00;;
77123;SDS011;66079;47.646;19.130;2023-07-22T04:16:10;7.53;;;6.72;;
77123;SDS011;66079;47.646;19.130;2023-07-22T04:19:13;8.60;;;6.68;;
77123;SDS011;66079;47.646;19.130;2023-07-22T04:22:20;7.82;;;6.60;;
77123;SDS011;66079;47.646;19.130;2023-07-22T04:25:23;7.65;;;6.47;;
77123;SDS011;66079;47.646;19.130;2023-07-22T04:28:26;7.73;;;6.60;;
77123;SDS011;66079;47.646;19.130;2023-07-22T04:31:29;6.95;;;6.28;;
77123;SDS011;66079;47.646;19.130;2023-07-22T04:34:32;7.03;;;6.32;;
77123;SDS011;66079;47.646;19.130;2023-07-22T04:37:35;6.97;;;6.28;;
77123;SDS011;66079;47.646;19.130;2023-07-22T04:40:37;7.75;;;6.00;;
77123;SDS011;66079;47.646;19.130;2023-07-22T04:43:46;8.30;;;6.53;;
77123;SDS011;66079;47.646;19.130;2023-07-22T04:46:50;10.00;;;7.45;;
77123;SDS011;66079;47.646;19.130;2023-07-22T04:49:53;7.32;;;6.63;;
77123;SDS011;66079;47.646;19.130;2023-07-22T04:52:56;9.75;;;6.97;;
77123;SDS011;66079;47.646;19.130;2023-07-22T04:55:59;11.48;;;7.20;;
77123;SDS011;66079;47.646;19.130;2023-07-22T04:59:01;7.43;;;6.73;;
77123;SDS011;66079;47.646;19.130;2023-07-22T05:02:05;9.50;;;7.30;;
77123;SDS011;66079;47.646;19.130;2023-07-22T05:05:07;7.25;;;6.55;;
77123;SDS011;66079;47.646;19.130;2023-07-22T05:08:11;7.13;;;6.40;;
77123;SDS011;66079;47.646;19.130;2023-07-22T05:11:14;7.50;;;6.30;;
77123;SDS011;66079;47.646;19.130;2023-07-22T05:14:16;7.07;;;6.20;;
77123;SDS011;66079;47.646;19.130;2023-07-22T05:17:22;7.28;;;6.20;;
77123;SDS011;66079;47.646;19.130;2023-07-22T05:20:24;8.40;;;6.30;;
77123;SDS011;66079;47.646;19.130;2023-07-22T05:23:27;7.78;;;6.72;;
77123;SDS011;66079;47.646;19.130;2023-07-22T05:26:30;7.57;;;6.80;;
77123;SDS011;66079;47.646;19.130;2023-07-22T05:29:33;8.80;;;6.70;;
77123;SDS011;66079;47.646;19.130;2023-07-22T05:32:36;6.88;;;6.15;;
77123;SDS011;66079;47.646;19.130;2023-07-22T05:35:39;8.75;;;6.65;;
77123;SDS011;66079;47.646;19.130;2023-07-22T05:38:50;9.30;;;6.22;;
77123;SDS011;66079;47.646;19.130;2023-07-22T05:41:53;8.45;;;6.70;;
77123;SDS011;66079;47.646;19.130;2023-07-22T05:44:57;7.13;;;6.37;;
77123;SDS011;66079;47.646;19.130;2023-07-22T05:48:00;8.00;;;6.68;;
77123;SDS011;66079;47.646;19.130;2023-07-22T05:51:03;8.68;;;6.60;;
77123;SDS011;66079;47.646;19.130;2023-07-22T05:54:06;7.68;;;6.88;;
77123;SDS011;66079;47.646;19.130;2023-07-22T05:57:09;9.32;;;6.80;;
77123;SDS011;66079;47.646;19.130;2023-07-22T06:00:14;7.87;;;7.00;;
77123;SDS011;66079;47.646;19.130;2023-07-22T06:03:17;7.72;;;7.03;;
77123;SDS011;66079;47.646;19.130;2023-07-22T06:06:20;7.45;;;6.75;;
77123;SDS011;66079;47.646;19.130;2023-07-22T06:09:29;9.48;;;6.70;;
77123;SDS011;66079;47.646;19.130;2023-07-22T06:12:32;8.45;;;6.38;;
77123;SDS011;66079;47.646;19.130;2023-07-22T06:15:36;8.40;;;6.37;;
77123;SDS011;66079;47.646;19.130;2023-07-22T06:18:39;6.75;;;6.13;;
77123;SDS011;66079;47.646;19.130;2023-07-22T06:21:41;8.75;;;6.57;;
77123;SDS011;66079;47.646;19.130;2023-07-22T06:24:45;8.48;;;6.32;;
77123;SDS011;66079;47.646;19.130;2023-07-22T06:27:48;8.23;;;6.20;;
77123;SDS011;66079;47.646;19.130;2023-07-22T06:30:52;6.80;;;6.20;;
77123;SDS011;66079;47.646;19.130;2023-07-22T06:34:01;6.95;;;6.00;;
77123;SDS011;66079;47.646;19.130;2023-07-22T06:37:05;6.25;;;5.50;;
77123;SDS011;66079;47.646;19.130;2023-07-22T06:40:11;6.80;;;5.45;;
77123;SDS011;66079;47.646;19.130;2023-07-22T06:43:13;6.00;;;5.20;;
77123;SDS011;66079;47.646;19.130;2023-07-22T06:46:16;6.20;;;5.60;;
77123;SDS011;66079;47.646;19.130;2023-07-22T06:49:18;6.65;;;5.22;;
77123;SDS011;66079;47.646;19.130;2023-07-22T06:52:21;6.30;;;4.72;;
77123;SDS011;66079;47.646;19.130;2023-07-22T06:55:25;7.05;;;4.93;;
77123;SDS011;66079;47.646;19.130;2023-07-22T06:58:30;5.53;;;4.88;;
77123;SDS011;66079;47.646;19.130;2023-07-22T07:01:32;5.37;;;4.80;;
77123;SDS011;66079;47.646;19.130;2023-07-22T07:04:35;5.20;;;4.50;;
77123;SDS011;66079;47.646;19.130;2023-07-22T07:07:38;6.05;;;4.60;;
77123;SDS011;66079;47.646;19.130;2023-07-22T07:10:43;5.90;;;4.72;;
77123;SDS011;66079;47.646;19.130;2023-07-22T07:13:48;7.47;;;4.93;;
77123;SDS011;66079;47.646;19.130;2023-07-22T07:16:55;5.13;;;4.40;;
77123;SDS011;66079;47.646;19.130;2023-07-22T07:19:58;7.18;;;4.85;;
77123;SDS011;66079;47.646;19.130;2023-07-22T07:23:00;5.18;;;4.40;;
77123;SDS011;66079;47.646;19.130;2023-07-22T07:26:03;5.43;;;4.53;;
77123;SDS011;66079;47.646;19.130;2023-07-22T07:29:07;5.25;;;4.53;;
77123;SDS011;66079;47.646;19.130;2023-07-22T07:32:09;6.40;;;4.03;;
77123;SDS011;66079;47.646;19.130;2023-07-22T07:35:13;6.65;;;3.80;;
77123;SDS011;66079;47.646;19.130;2023-07-22T07:38:15;5.68;;;4.00;;
77123;SDS011;66079;47.646;19.130;2023-07-22T07:41:18;5.85;;;4.15;;
77123;SDS011;66079;47.646;19.130;2023-07-22T07:44:24;5.45;;;4.18;;
77123;SDS011;66079;47.646;19.130;2023-07-22T07:47:26;5.60;;;3.83;;
77123;SDS011;66079;47.646;19.130;2023-07-22T07:50:29;7.47;;;4.00;;
77123;SDS011;66079;47.646;19.130;2023-07-22T07:53:32;4.80;;;3.90;;
77123;SDS011;66079;47.646;19.130;2023-07-22T07:56:35;5.32;;;3.70;;
77123;SDS011;66079;47.646;19.130;2023-07-22T07:59:37;4.55;;;3.70;;
77123;SDS011;66079;47.646;19.130;2023-07-22T08:02:40;5.23;;;4.07;;
77123;SDS011;66079;47.646;19.130;2023-07-22T08:05:43;6.85;;;4.40;;
77123;SDS011;66079;47.646;19.130;2023-07-22T08:08:45;5.18;;;3.50;;
77123;SDS011;66079;47.646;19.130;2023-07-22T08:11:48;4.82;;;3.50;;
77123;SDS011;66079;47.646;19.130;2023-07-22T08:14:52;3.58;;;3.28;;
77123;SDS011;66079;47.646;19.130;2023-07-22T08:17:56;4.53;;;3.63;;
77123;SDS011;66079;47.646;19.130;2023-07-22T08:21:03;4.35;;;3.25;;
77123;SDS011;66079;47.646;19.130;2023-07-22T08:24:10;3.95;;;3.47;;
77123;SDS011;66079;47.646;19.130;2023-07-22T08:27:15;4.00;;;3.60;;
77123;SDS011;66079;47.646;19.130;2023-07-22T08:30:18;4.30;;;3.53;;
77123;SDS011;66079;47.646;19.130;2023-07-22T08:33:21;5.07;;;3.37;;
77123;SDS011;66079;47.646;19.130;2023-07-22T08:36:41;5.32;;;3.85;;
77123;SDS011;66079;47.646;19.130;2023-07-22T08:39:43;6.05;;;3.88;;
77123;SDS011;66079;47.646;19.130;2023-07-22T08:42:46;4.00;;;3.45;;
77123;SDS011;66079;47.646;19.130;2023-07-22T08:45:52;3.50;;;3.20;;
77123;SDS011;66079;47.646;19.130;2023-07-22T08:48:56;3.40;;;3.10;;
77123;SDS011;66079;47.646;19.130;2023-07-22T08:52:03;4.00;;;3.60;;
77123;SDS011;66079;47.646;19.130;2023-07-22T08:55:06;5.15;;;4.00;;
77123;SDS011;66079;47.646;19.130;2023-07-22T08:58:11;4.60;;;3.78;;
77123;SDS011;66079;47.646;19.130;2023-07-22T09:01:15;4.43;;;3.40;;
77123;SDS011;66079;47.646;19.130;2023-07-22T09:04:18;4.87;;;3.67;;
77123;SDS011;66079;47.646;19.130;2023-07-22T09:07:22;3.75;;;3.45;;
77123;SDS011;66079;47.646;19.130;2023-07-22T09:10:26;3.58;;;3.28;;
77123;SDS011;66079;47.646;19.130;2023-07-22T09:13:31;3.55;;;2.92;;
77123;SDS011;66079;47.646;19.130;2023-07-22T09:16:37;3.58;;;3.20;;
77123;SDS011;66079;47.646;19.130;2023-07-22T09:19:40;4.93;;;3.00;;
77123;SDS011;66079;47.646;19.130;2023-07-22T09:22:47;5.60;;;3.00;;
77123;SDS011;66079;47.646;19.130;2023-07-22T09:26:14;3.30;;;2.95;;
77123;SDS011;66079;47.646;19.130;2023-07-22T09:29:18;3.95;;;2.70;;
77123;SDS011;66079;47.646;19.130;2023-07-22T09:32:35;7.45;;;2.60;;
77123;SDS011;66079;47.646;19.130;2023-07-22T09:35:44;2.93;;;2.60;;
77123;SDS011;66079;47.646;19.130;2023-07-22T09:38:58;3.92;;;2.70;;
77123;SDS011;66079;47.646;19.130;2023-07-22T09:42:05;4.78;;;2.72;;
77123;SDS011;66079;47.646;19.130;2023-07-22T09:45:08;3.55;;;2.03;;
77123;SDS011;66079;47.646;19.130;2023-07-22T09:48:11;3.25;;;2.67;;
77123;SDS011;66079;47.646;19.130;2023-07-22T09:51:15;4.53;;;2.30;;
77123;SDS011;66079;47.646;19.130;2023-07-22T09:54:19;3.28;;;2.05;;
77123;SDS011;66079;47.646;19.130;2023-07-22T09:57:22;4.03;;;2.20;;
77123;SDS011;66079;47.646;19.130;2023-07-22T10:00:35;4.00;;;2.05;;
77123;SDS011;66079;47.646;19.130;2023-07-22T10:03:38;2.22;;;2.00;;
77123;SDS011;66079;47.646;19.130;2023-07-22T10:06:50;3.03;;;2.30;;
77123;SDS011;66079;47.646;19.130;2023-07-22T10:09:54;3.28;;;2.20;;
77123;SDS011;66079;47.646;19.130;2023-07-22T10:12:58;3.00;;;2.30;;
77123;SDS011;66079;47.646;19.130;2023-07-22T10:16:01;2.35;;;2.15;;
77123;SDS011;66079;47.646;19.130;2023-07-22T10:19:05;4.00;;;1.95;;
77123;SDS011;66079;47.646;19.130;2023-07-22T10:22:09;3.00;;;1.90;;
77123;SDS011;66079;47.646;19.130;2023-07-22T10:25:14;3.17;;;2.03;;
77123;SDS011;66079;47.646;19.130;2023-07-22T10:28:19;2.85;;;1.83;;
77123;SDS011;66079;47.646;19.130;2023-07-22T10:31:22;2.45;;;1.80;;
77123;SDS011;66079;47.646;19.130;2023-07-22T10:34:25;2.35;;;1.63;;
77123;SDS011;66079;47.646;19.130;2023-07-22T10:37:32;3.00;;;1.63;;
77123;SDS011;66079;47.646;19.130;2023-07-22T10:40:49;5.10;;;1.70;;
77123;SDS011;66079;47.646;19.130;2023-07-22T10:43:57;2.38;;;1.70;;
77123;SDS011;66079;47.646;19.130;2023-07-22T10:47:05;2.53;;;1.80;;
77123;SDS011;66079;47.646;19.130;2023-07-22T10:50:09;2.05;;;1.60;;
77123;SDS011;66079;47.646;19.130;2023-07-22T10:53:13;2.07;;;1.60;;
77123;SDS011;66079;47.646;19.130;2023-07-22T10:56:21;1.88;;;1.55;;
77123;SDS011;66079;47.646;19.130;2023-07-22T10:59:28;1.88;;;1.70;;
77123;SDS011;66079;47.646;19.130;2023-07-22T11:02:31;2.60;;;1.70;;
77123;SDS011;66079;47.646;19.130;2023-07-22T11:05:51;1.77;;;1.50;;
77123;SDS011;66079;47.646;19.130;2023-07-22T11:08:55;3.63;;;1.63;;
77123;SDS011;66079;47.646;19.130;2023-07-22T11:11:58;4.78;;;1.70;;
77123;SDS011;66079;47.646;19.130;2023-07-22T11:15:06;3.03;;;1.60;;
77123;SDS011;66079;47.646;19.130;2023-07-22T11:18:10;2.40;;;1.13;;
77123;SDS011;66079;47.646;19.130;2023-07-22T11:21:13;1.98;;;1.50;;
77123;SDS011;66079;47.646;19.130;2023-07-22T11:24:16;1.77;;;1.40;;
77123;SDS011;66079;47.646;19.130;2023-07-22T11:27:18;3.08;;;1.45;;
77123;SDS011;66079;47.646;19.130;2023-07-22T11:30:23;2.53;;;1.70;;
77123;SDS011;66079;47.646;19.130;2023-07-22T11:33:34;1.85;;;1.30;;
77123;SDS011;66079;47.646;19.130;2023-07-22T11:36:40;1.58;;;1.48;;
77123;SDS011;66079;47.646;19.130;2023-07-22T11:39:44;3.10;;;1.50;;
77123;SDS011;66079;47.646;19.130;2023-07-22T11:42:47;1.40;;;1.30;;
77123;SDS011;66079;47.646;19.130;2023-07-22T11:45:51;1.77;;;1.50;;
77123;SDS011;66079;47.646;19.130;2023-07-22T11:48:56;3.30;;;1.58;;
77123;SDS011;66079;47.646;19.130;2023-07-22T11:52:02;1.50;;;1.40;;
77123;SDS011;66079;47.646;19.130;2023-07-22T11:55:07;1.83;;;1.50;;
77123;SDS011;66079;47.646;19.130;2023-07-22T11:58:24;2.85;;;1.60;;
77123;SDS011;66079;47.646;19.130;2023-07-22T12:01:33;1.75;;;1.60;;
77123;SDS011;66079;47.646;19.130;2023-07-22T12:04:35;2.53;;;1.30;;
77123;SDS011;66079;47.646;19.130;2023-07-22T12:07:38;1.80;;;1.45;;
77123;SDS011;66079;47.646;19.130;2023-07-22T12:10:41;2.43;;;1.53;;
77123;SDS011;66079;47.646;19.130;2023-07-22T12:13:44;2.00;;;1.27;;
77123;SDS011;66079;47.646;19.130;2023-07-22T12:16:52;2.00;;;1.40;;
77123;SDS011;66079;47.646;19.130;2023-07-22T12:20:04;1.60;;;1.50;;
77123;SDS011;66079;47.646;19.130;2023-07-22T12:23:08;2.17;;;1.50;;
77123;SDS011;66079;47.646;19.130;2023-07-22T12:26:12;1.93;;;1.30;;
77123;SDS011;66079;47.646;19.130;2023-07-22T12:29:15;1.50;;;1.40;;
77123;SDS011;66079;47.646;19.130;2023-07-22T12:32:18;2.13;;;1.27;;
77123;SDS011;66079;47.646;19.130;2023-07-22T12:35:20;3.58;;;1.30;;
77123;SDS011;66079;47.646;19.130;2023-07-22T12:38:23;3.83;;;1.50;;
77123;SDS011;66079;47.646;19.130;2023-07-22T12:41:26;1.40;;;1.30;;
77123;SDS011;66079;47.646;19.130;2023-07-22T12:44:29;1.30;;;1.20;;
77123;SDS011;66079;47.646;19.130;2023-07-22T12:47:32;2.65;;;1.40;;
77123;SDS011;66079;47.646;19.130;2023-07-22T12:50:34;1.80;;;1.38;;
77123;SDS011;66079;47.646;19.130;2023-07-22T12:53:37;2.30;;;1.60;;
77123;SDS011;66079;47.646;19.130;2023-07-22T12:56:40;2.47;;;1.40;;
77123;SDS011;66079;47.646;19.130;2023-07-22T12:59:46;2.08;;;1.50;;
77123;SDS011;66079;47.646;19.130;2023-07-22T13:02:51;1.52;;;1.42;;
77123;SDS011;66079;47.646;19.130;2023-07-22T13:05:54;1.60;;;1.50;;
77123;SDS011;66079;47.646;19.130;2023-07-22T13:08:57;2.67;;;1.50;;
77123;SDS011;66079;47.646;19.130;2023-07-22T13:11:59;1.93;;;1.27;;
77123;SDS011;66079;47.646;19.130;2023-07-22T13:15:03;1.48;;;1.30;;
77123;SDS011;66079;47.646;19.130;2023-07-22T13:18:07;1.60;;;1.48;;
77123;SDS011;66079;47.646;19.130;2023-07-22T13:21:10;1.83;;;1.70;;
77123;SDS011;66079;47.646;19.130;2023-07-22T13:24:13;3.05;;;1.50;;
77123;SDS011;66079;47.646;19.130;2023-07-22T13:27:16;2.13;;;1.40;;
77123;SDS011;66079;47.646;19.130;2023-07-22T13:30:21;1.40;;;1.30;;
77123;SDS011;66079;47.646;19.130;2023-07-22T13:33:24;1.48;;;1.30;;
77123;SDS011;66079;47.646;19.130;2023-07-22T13:36:29;2.60;;;1.75;;
77123;SDS011;66079;47.646;19.130;2023-07-22T13:39:31;1.75;;;1.65;;
77123;SDS011;66079;47.646;19.130;2023-07-22T13:42:34;1.63;;;1.53;;
77123;SDS011;66079;47.646;19.130;2023-07-22T13:45:37;1.65;;;1.38;;
77123;SDS011;66079;47.646;19.130;2023-07-22T13:48:40;2.20;;;1.70;;
77123;SDS011;66079;47.646;19.130;2023-07-22T13:51:43;1.45;;;1.35;;
77123;SDS011;66079;47.646;19.130;2023-07-22T13:54:46;2.33;;;1.58;;
77123;SDS011;66079;47.646;19.130;2023-07-22T13:57:48;1.60;;;1.50;;
77123;SDS011;66079;47.646;19.130;2023-07-22T14:00:51;2.25;;;1.52;;
77123;SDS011;66079;47.646;19.130;2023-07-22T14:03:56;1.92;;;1.50;;
77123;SDS011;66079;47.646;19.130;2023-07-22T14:06:58;2.28;;;1.45;;
77123;SDS011;66079;47.646;19.130;2023-07-22T14:10:01;1.60;;;1.50;;
77123;SDS011;66079;47.646;19.130;2023-07-22T14:13:06;1.77;;;1.60;;
77123;SDS011;66079;47.646;19.130;2023-07-22T14:16:11;1.95;;;1.50;;
77123;SDS011;66079;47.646;19.130;2023-07-22T14:19:25;1.83;;;1.58;;
77123;SDS011;66079;47.646;19.130;2023-07-22T14:22:28;1.65;;;1.55;;
77123;SDS011;66079;47.646;19.130;2023-07-22T14:25:30;3.78;;;1.65;;
77123;SDS011;66079;47.646;19.130;2023-07-22T14:28:33;2.57;;;1.70;;
77123;SDS011;66079;47.646;19.130;2023-07-22T14:31:36;1.70;;;1.60;;
77123;SDS011;66079;47.646;19.130;2023-07-22T14:34:39;1.70;;;1.60;;
77123;SDS011;66079;47.646;19.130;2023-07-22T14:37:42;2.83;;;1.60;;
77123;SDS011;66079;47.646;19.130;2023-07-22T14:40:45;2.10;;;1.80;;
77123;SDS011;66079;47.646;19.130;2023-07-22T14:43:48;1.60;;;1.50;;
77123;SDS011;66079;47.646;19.130;2023-07-22T14:46:50;2.88;;;1.60;;
77123;SDS011;66079;47.646;19.130;2023-07-22T14:49:53;1.90;;;1.80;;
77123;SDS011;66079;47.646;19.130;2023-07-22T14:52:57;2.40;;;1.70;;
77123;SDS011;66079;47.646;19.130;2023-07-22T14:56:01;2.42;;;1.70;;
77123;SDS011;66079;47.646;19.130;2023-07-22T14:59:03;2.17;;;1.57;;
77123;SDS011;66079;47.646;19.130;2023-07-22T15:02:06;1.83;;;1.67;;
77123;SDS011;66079;47.646;19.130;2023-07-22T15:05:09;2.55;;;1.50;;
77123;SDS011;66079;47.646;19.130;2023-07-22T15:08:11;2.67;;;1.40;;
77123;SDS011;66079;47.646;19.130;2023-07-22T15:11:14;2.40;;;1.65;;
77123;SDS011;66079;47.646;19.130;2023-07-22T15:14:17;2.43;;;1.70;;
77123;SDS011;66079;47.646;19.130;2023-07-22T15:17:20;2.65;;;1.70;;
77123;SDS011;66079;47.646;19.130;2023-07-22T15:20:25;1.70;;;1.60;;
77123;SDS011;66079;47.646;19.130;2023-07-22T15:23:28;2.25;;;1.40;;
77123;SDS011;66079;47.646;19.130;2023-07-22T15:26:31;3.35;;;1.60;;
77123;SDS011;66079;47.646;19.130;2023-07-22T15:29:33;2.07;;;1.50;;
77123;SDS011;66079;47.646;19.130;2023-07-22T15:32:36;1.80;;;1.50;;
77123;SDS011;66079;47.646;19.130;2023-07-22T15:35:39;1.65;;;1.55;;
77123;SDS011;66079;47.646;19.130;2023-07-22T15:38:43;1.48;;;1.30;;
77123;SDS011;66079;47.646;19.130;2023-07-22T15:41:49;1.67;;;1.50;;
77123;SDS011;66079;47.646;19.130;2023-07-22T15:44:52;2.33;;;1.40;;
77123;SDS011;66079;47.646;19.130;2023-07-22T15:47:55;3.88;;;1.60;;
77123;SDS011;66079;47.646;19.130;2023-07-22T15:50:57;1.65;;;1.42;;
77123;SDS011;66079;47.646;19.130;2023-07-22T15:54:01;3.70;;;1.30;;
77123;SDS011;66079;47.646;19.130;2023-07-22T15:57:03;1.88;;;1.30;;
77123;SDS011;66079;47.646;19.130;2023-07-22T16:00:06;2.17;;;1.30;;
77123;SDS011;66079;47.646;19.130;2023-07-22T16:03:13;2.63;;;1.50;;
77123;SDS011;66079;47.646;19.130;2023-07-22T16:06:20;1.40;;;1.30;;
77123;SDS011;66079;47.646;19.130;2023-07-22T16:09:34;3.05;;;1.50;;
77123;SDS011;66079;47.646;19.130;2023-07-22T16:12:37;1.83;;;1.33;;
77123;SDS011;66079;47.646;19.130;2023-07-22T16:15:39;2.27;;;1.50;;
77123;SDS011;66079;47.646;19.130;2023-07-22T16:18:43;2.03;;;1.30;;
77123;SDS011;66079;47.646;19.130;2023-07-22T16:21:45;1.73;;;1.17;;
77123;SDS011;66079;47.646;19.130;2023-07-22T16:24:49;1.95;;;1.33;;
77123;SDS011;66079;47.646;19.130;2023-07-22T16:27:52;2.58;;;1.42;;
77123;SDS011;66079;47.646;19.130;2023-07-22T16:30:55;1.50;;;1.40;;
77123;SDS011;66079;47.646;19.130;2023-07-22T16:33:58;1.55;;;1.20;;
77123;SDS011;66079;47.646;19.130;2023-07-22T16:37:05;1.95;;;1.40;;
77123;SDS011;66079;47.646;19.130;2023-07-22T16:40:08;3.10;;;1.58;;
77123;SDS011;66079;47.646;19.130;2023-07-22T16:43:13;2.78;;;1.67;;
77123;SDS011;66079;47.646;19.130;2023-07-22T16:46:16;1.83;;;1.30;;
77123;SDS011;66079;47.646;19.130;2023-07-22T16:49:19;3.92;;;1.60;;
77123;SDS011;66079;47.646;19.130;2023-07-22T16:52:22;1.73;;;1.45;;
77123;SDS011;66079;47.646;19.130;2023-07-22T16:55:26;1.77;;;1.40;;
77123;SDS011;66079;47.646;19.130;2023-07-22T16:58:31;1.80;;;1.60;;
77123;SDS011;66079;47.646;19.130;2023-07-22T17:01:33;1.67;;;1.23;;
77123;SDS011;66079;47.646;19.130;2023-07-22T17:04:36;1.92;;;1.73;;
77123;SDS011;66079;47.646;19.130;2023-07-22T17:07:39;1.77;;;1.60;;
77123;SDS011;66079;47.646;19.130;2023-07-22T17:10:45;1.95;;;1.77;;
77123;SDS011;66079;47.646;19.130;2023-07-22T17:13:48;3.03;;;1.92;;
77123;SDS011;66079;47.646;19.130;2023-07-22T17:16:52;2.80;;;2.37;;
77123;SDS011;66079;47.646;19.130;2023-07-22T17:19:54;2.50;;;1.70;;
77123;SDS011;66079;47.646;19.130;2023-07-22T17:22:57;2.28;;;1.42;;
77123;SDS011;66079;47.646;19.130;2023-07-22T17:26:01;1.77;;;1.40;;
77123;SDS011;66079;47.646;19.130;2023-07-22T17:29:06;1.85;;;1.50;;
77123;SDS011;66079;47.646;19.130;2023-07-22T17:32:09;3.87;;;1.50;;
77123;SDS011;66079;47.646;19.130;2023-07-22T17:35:12;2.47;;;1.40;;
77123;SDS011;66079;47.646;19.130;2023-07-22T17:38:14;3.47;;;1.38;;
77123;SDS011;66079;47.646;19.130;2023-07-22T17:41:18;2.38;;;1.40;;
77123;SDS011;66079;47.646;19.130;2023-07-22T17:44:21;4.70;;;1.65;;
77123;SDS011;66079;47.646;19.130;2023-07-22T17:47:24;2.00;;;1.47;;
77123;SDS011;66079;47.646;19.130;2023-07-22T17:50:27;2.95;;;1.80;;
77123;SDS011;66079;47.646;19.130;2023-07-22T17:53:32;3.45;;;1.98;;
77123;SDS011;66079;47.646;19.130;2023-07-22T17:56:34;3.63;;;1.80;;
77123;SDS011;66079;47.646;19.130;2023-07-22T17:59:38;2.60;;;1.80;;
77123;SDS011;66079;47.646;19.130;2023-07-22T18:02:44;1.90;;;1.60;;
77123;SDS011;66079;47.646;19.130;2023-07-22T18:05:47;2.00;;;1.55;;
77123;SDS011;66079;47.646;19.130;2023-07-22T18:08:51;1.95;;;1.60;;
77123;SDS011;66079;47.646;19.130;2023-07-22T18:11:53;2.05;;;1.50;;